Time;durP1;ratioP1;P1;durP2;ratioP2;P2;SDS_P1;SDS_P2;PMS_P1;PMS_P2;Temp;Humidity;BMP_temperature;BMP_pressure;BME280_temperature;BME280_humidity;BME280_pressure;Samples;Min_cycle;Max_cycle;Signal;HPM_P1;HPM_P2
2023/04/07 00:00:52;;;;;;;0.20;0.20;;;;;;;5.99;100.00;96698.75;5072717;28;20655;-52
2023/04/07 00:03:17;;;;;;;0.10;0.10;;;;;;;6.01;100.00;96699.38;5071577;28;20184;-57
2023/04/07 00:05:43;;;;;;;0.10;0.10;;;;;;;6.02;100.00;96696.53;5072516;28;20173;-50
2023/04/07 00:08:08;;;;;;;0.00;0.00;;;;;;;6.03;100.00;96692.16;5072308;28;20201;-52
2023/04/07 00:10:34;;;;;;;0.10;0.10;;;;;;;5.94;100.00;96694.16;5072318;28;20262;-51
2023/04/07 00:13:00;;;;;;;0.10;0.10;;;;;;;5.90;100.00;96687.75;5072373;28;20211;-52
2023/04/07 00:15:25;;;;;;;0.10;0.10;;;;;;;5.91;100.00;96688.56;5072448;28;20181;-52
2023/04/07 00:17:51;;;;;;;0.10;0.10;;;;;;;5.94;100.00;96683.75;5073125;28;20185;-54
2023/04/07 00:20:16;;;;;;;0.10;0.10;;;;;;;5.87;100.00;96682.94;5072465;28;20173;-51
2023/04/07 00:22:42;;;;;;;0.10;0.10;;;;;;;5.90;100.00;96676.56;5072530;28;20188;-52
2023/04/07 00:25:07;;;;;;;0.10;0.10;;;;;;;5.89;100.00;96673.16;5072002;28;20199;-55
2023/04/07 00:27:33;;;;;;;0.10;0.10;;;;;;;5.89;100.00;96673.16;5071866;28;20199;-54
2023/04/07 00:29:59;;;;;;;0.10;0.10;;;;;;;5.75;100.00;96667.09;5071644;28;20300;-56
2023/04/07 00:32:24;;;;;;;0.10;0.10;;;;;;;5.76;100.00;96662.69;5072000;28;20197;-52
2023/04/07 00:34:50;;;;;;;0.10;0.10;;;;;;;5.80;100.00;96661.28;5071812;28;20188;-49
2023/04/07 00:37:15;;;;;;;0.10;0.10;;;;;;;5.74;100.00;96660.28;5071816;28;20177;-53
2023/04/07 00:39:41;;;;;;;0.10;0.10;;;;;;;5.79;100.00;96657.13;5071894;28;20227;-52
2023/04/07 00:42:06;;;;;;;0.10;0.10;;;;;;;5.76;100.00;96665.28;5072265;28;20677;-52
2023/04/07 00:44:33;;;;;;;0.13;0.13;;;;;;;5.79;100.00;96655.31;5072142;28;20181;-52
2023/04/07 00:46:59;;;;;;;0.10;0.10;;;;;;;5.83;100.00;96655.72;5072230;28;20187;-51
2023/04/07 00:49:27;;;;;;;0.10;0.10;;;;;;;5.82;100.00;96654.09;5085666;28;20676;-55
2023/04/07 00:51:54;;;;;;;0.10;0.10;;;;;;;5.77;100.00;96651.31;5092530;28;20613;-53
2023/04/07 00:54:22;;;;;;;0.10;0.10;;;;;;;5.73;100.00;96648.31;5092508;28;20179;-51
2023/04/07 00:56:47;;;;;;;0.10;0.10;;;;;;;5.76;100.00;96640.09;5092511;28;20697;-51
2023/04/07 00:59:13;;;;;;;0.10;0.10;;;;;;;5.78;100.00;96635.50;5092351;28;20176;-51
2023/04/07 01:02:00;;;;;;;0.10;0.10;;;;;;;5.77;100.00;96633.09;5092478;28;20681;-49
2023/04/07 01:04:32;;;;;;;0.10;0.10;;;;;;;5.85;100.00;96632.91;5091231;28;20651;-49
2023/04/07 01:07:05;;;;;;;0.10;0.10;;;;;;;5.80;100.00;96625.69;5092612;28;20177;-49
2023/04/07 01:09:53;;;;;;;0.10;0.10;;;;;;;5.71;100.00;96626.09;5092341;28;20200;-49
2023/04/07 01:13:20;;;;;;;0.10;0.10;;;;;;;5.76;100.00;96628.88;5096211;28;20208;-51
2023/04/07 01:15:51;;;;;;;0.10;0.10;;;;;;;5.78;100.00;96619.91;4983948;28;20676;-51
2023/04/07 01:18:21;;;;;;;0.10;0.10;;;;;;;5.89;100.00;96617.72;5069743;28;20180;-51
2023/04/07 01:20:50;;;;;;;0.10;0.10;;;;;;;5.86;100.00;96622.28;5095999;28;20351;-49
2023/04/07 01:23:54;;;;;;;0.10;0.10;;;;;;;5.96;100.00;96611.53;5085406;28;20180;-49
2023/04/07 01:26:33;;;;;;;0.10;0.10;;;;;;;5.89;100.00;96609.94;5062351;28;20197;-52
2023/04/07 01:29:46;;;;;;;0.10;0.10;;;;;;;5.88;100.00;96616.13;5084452;28;20243;-53
2023/04/07 01:32:14;;;;;;;0.10;0.10;;;;;;;5.83;100.00;96606.28;5093124;28;20212;-49
2023/04/07 01:34:41;;;;;;;0.10;0.10;;;;;;;5.77;100.00;96607.09;5095759;28;20191;-51
2023/04/07 01:37:07;;;;;;;0.10;0.10;;;;;;;5.78;100.00;96601.69;5095803;28;20629;-49
2023/04/07 01:39:34;;;;;;;0.10;0.10;;;;;;;5.72;100.00;96604.28;5095633;28;20184;-51
2023/04/07 01:42:02;;;;;;;0.10;0.10;;;;;;;5.72;100.00;96604.28;5095818;28;20204;-49
2023/04/07 01:44:29;;;;;;;0.10;0.10;;;;;;;5.77;100.00;96597.50;5095349;28;20180;-53
2023/04/07 01:46:55;;;;;;;0.20;0.20;;;;;;;5.74;100.00;96597.09;5095642;28;20181;-49
2023/04/07 01:49:22;;;;;;;0.10;0.10;;;;;;;5.81;100.00;96592.69;5091865;28;20319;-50
2023/04/07 01:51:49;;;;;;;0.10;0.10;;;;;;;5.79;100.00;96590.31;5095482;28;20588;-49
2023/04/07 01:54:16;;;;;;;0.10;0.10;;;;;;;5.80;100.00;96597.09;5095197;28;20624;-49
2023/04/07 01:56:43;;;;;;;0.10;0.10;;;;;;;5.77;100.00;96587.09;5095559;28;20188;-57
2023/04/07 01:59:08;;;;;;;0.10;0.10;;;;;;;5.82;100.00;96583.88;5095164;28;20255;-51
2023/04/07 02:01:34;;;;;;;0.10;0.10;;;;;;;5.76;100.00;96587.28;5095097;28;20295;-49
2023/04/07 02:04:06;;;;;;;0.10;0.10;;;;;;;5.74;100.00;96587.47;5094608;28;20191;-52
2023/04/07 02:06:36;;;;;;;0.10;0.10;;;;;;;5.70;100.00;96588.09;5095147;28;20176;-51
2023/04/07 02:09:06;;;;;;;0.10;0.10;;;;;;;5.82;100.00;96584.69;5095025;28;20196;-51
2023/04/07 02:11:34;;;;;;;0.10;0.10;;;;;;;5.90;100.00;96578.53;5095010;28;20274;-51
2023/04/07 02:14:02;;;;;;;0.10;0.10;;;;;;;5.75;100.00;96581.28;5094089;28;20530;-51
2023/04/07 02:16:31;;;;;;;0.10;0.10;;;;;;;5.69;100.00;96582.09;5095341;28;20192;-49
2023/04/07 02:18:58;;;;;;;0.10;0.10;;;;;;;5.79;100.00;96576.50;5094799;28;20702;-53
2023/04/07 02:21:25;;;;;;;0.10;0.10;;;;;;;5.73;100.00;96578.09;5076316;28;20196;-53
2023/04/07 02:23:51;;;;;;;0.10;0.10;;;;;;;5.77;100.00;96570.69;5094989;28;20168;-49
2023/04/07 02:26:16;;;;;;;0.10;0.10;;;;;;;5.88;100.00;96570.09;5094543;28;20183;-51
2023/04/07 02:28:42;;;;;;;0.10;0.10;;;;;;;5.85;100.00;96570.50;5075866;28;20208;-51
2023/04/07 02:31:07;;;;;;;0.10;0.10;;;;;;;5.83;100.00;96560.28;5095090;28;20215;-53
2023/04/07 02:33:33;;;;;;;0.10;0.10;;;;;;;5.81;100.00;96564.88;5095934;28;20165;-50
2023/04/07 02:35:58;;;;;;;0.10;0.10;;;;;;;5.89;100.00;96557.91;5096934;28;20194;-49
2023/04/07 02:38:24;;;;;;;0.10;0.10;;;;;;;5.98;100.00;96562.69;5114570;28;20176;-49
2023/04/07 02:40:50;;;;;;;0.10;0.10;;;;;;;5.91;100.00;96553.31;5062368;28;20204;-52
2023/04/07 02:43:16;;;;;;;0.10;0.10;;;;;;;5.83;100.00;96554.28;5095139;28;20268;-53
2023/04/07 02:45:42;;;;;;;0.10;0.10;;;;;;;5.95;100.00;96552.69;5094224;28;20188;-52
2023/04/07 02:48:07;;;;;;;0.10;0.10;;;;;;;5.93;100.00;96546.09;5092169;28;20600;-49
2023/04/07 02:50:33;;;;;;;0.10;0.10;;;;;;;5.90;100.00;96544.72;5094436;28;20242;-50
2023/04/07 02:52:58;;;;;;;0.10;0.10;;;;;;;5.99;100.00;96534.88;5094678;28;20180;-49
2023/04/07 02:55:24;;;;;;;0.10;0.10;;;;;;;6.00;100.00;96550.28;5094335;28;20173;-50
2023/04/07 02:57:49;;;;;;;0.10;0.10;;;;;;;6.05;100.00;96544.47;5075905;28;20551;-49
2023/04/07 03:00:15;;;;;;;0.10;0.10;;;;;;;6.05;100.00;96539.25;5094361;28;20252;-49
2023/04/07 03:02:40;;;;;;;0.10;0.10;;;;;;;6.10;100.00;96544.66;5093900;28;20176;-52
2023/04/07 03:05:06;;;;;;;0.10;0.10;;;;;;;6.13;100.00;96542.44;5094601;28;20532;-52
2023/04/07 03:07:31;;;;;;;0.10;0.10;;;;;;;6.16;100.00;96533.44;5093883;28;20257;-53
2023/04/07 03:09:57;;;;;;;0.10;0.10;;;;;;;6.06;100.00;96536.47;5093438;28;20196;-49
2023/04/07 03:12:22;;;;;;;0.10;0.10;;;;;;;6.06;100.00;96538.25;5077314;28;20228;-54
2023/04/07 03:14:47;;;;;;;0.10;0.10;;;;;;;6.05;100.00;96532.25;5094240;28;20193;-51
2023/04/07 03:17:13;;;;;;;0.10;0.10;;;;;;;6.01;100.00;96528.47;5093894;28;20180;-50
2023/04/07 03:19:38;;;;;;;0.10;0.10;;;;;;;6.12;100.00;96524.44;5094021;28;20271;-50
2023/04/07 03:22:04;;;;;;;0.10;0.10;;;;;;;6.13;100.00;96524.22;5093782;28;20291;-51
2023/04/07 03:24:30;;;;;;;0.10;0.10;;;;;;;5.99;100.00;96527.06;5093612;28;20246;-50
2023/04/07 03:26:55;;;;;;;0.10;0.10;;;;;;;6.05;100.00;96523.66;5093803;28;20514;-51
2023/04/07 03:29:20;;;;;;;0.10;0.10;;;;;;;6.03;100.00;96525.66;5075103;28;20638;-52
2023/04/07 03:31:46;;;;;;;0.10;0.10;;;;;;;6.08;100.00;96521.44;5093448;28;20691;-51
2023/04/07 03:34:12;;;;;;;0.10;0.10;;;;;;;6.08;100.00;96526.63;5092720;28;20176;-51
2023/04/07 03:36:37;;;;;;;0.10;0.10;;;;;;;5.97;100.00;96526.47;5093554;28;20184;-50
2023/04/07 03:39:03;;;;;;;0.10;0.10;;;;;;;5.93;100.00;96520.09;5093469;28;20212;-50
2023/04/07 03:41:28;;;;;;;0.10;0.10;;;;;;;5.87;100.00;96516.50;5093357;28;20259;-49
2023/04/07 03:43:54;;;;;;;0.10;0.10;;;;;;;5.93;100.00;96513.06;5093996;28;20218;-49
2023/04/07 03:46:20;;;;;;;0.10;0.10;;;;;;;6.05;100.00;96511.44;5093481;28;20278;-52
2023/04/07 03:48:46;;;;;;;0.10;0.10;;;;;;;6.05;100.00;96510.66;5090824;28;20236;-50
2023/04/07 03:51:11;;;;;;;0.10;0.10;;;;;;;5.93;100.00;96513.06;5093114;28;20231;-49
2023/04/07 03:53:37;;;;;;;0.10;0.10;;;;;;;5.94;100.00;96514.69;5093583;28;20637;-53
2023/04/07 03:56:03;;;;;;;0.10;0.10;;;;;;;6.00;100.00;96503.47;5076064;28;20181;-53
2023/04/07 03:58:28;;;;;;;0.10;0.10;;;;;;;5.96;100.00;96502.28;5093358;28;20206;-51
2023/04/07 04:00:54;;;;;;;0.00;0.00;;;;;;;5.99;100.00;96501.84;5093522;28;20216;-51
2023/04/07 04:03:19;;;;;;;0.03;0.03;;;;;;;5.89;100.00;96493.69;5092210;28;20545;-54
2023/04/07 04:05:45;;;;;;;0.10;0.10;;;;;;;5.95;100.00;96498.06;5093069;28;20219;-52
2023/04/07 04:08:10;;;;;;;0.10;0.10;;;;;;;5.88;100.00;96501.69;5092991;28;20180;-53
2023/04/07 04:10:35;;;;;;;0.10;0.10;;;;;;;6.00;100.00;96500.88;5074831;28;20200;-50
2023/04/07 04:13:02;;;;;;;0.20;0.20;;;;;;;5.94;100.00;96498.28;5093216;28;20189;-50
2023/04/07 04:15:28;;;;;;;0.10;0.10;;;;;;;5.97;100.00;96500.44;5093011;28;20177;-52
2023/04/07 04:17:53;;;;;;;0.10;0.10;;;;;;;5.91;100.00;96499.47;5093000;28;20190;-51
2023/04/07 04:20:21;;;;;;;0.10;0.10;;;;;;;6.00;100.00;96492.25;5092900;28;20260;-52
2023/04/07 04:22:46;;;;;;;0.10;0.10;;;;;;;5.88;100.00;96496.50;5093050;28;20172;-50
2023/04/07 04:25:11;;;;;;;0.10;0.10;;;;;;;5.99;100.00;96499.25;5092729;28;20199;-49
2023/04/07 04:27:37;;;;;;;0.10;0.10;;;;;;;5.95;100.00;96495.47;5092193;28;20169;-50
2023/04/07 04:30:03;;;;;;;0.10;0.10;;;;;;;5.96;100.00;96491.06;5092478;28;20204;-52
2023/04/07 04:32:28;;;;;;;0.10;0.10;;;;;;;5.90;100.00;96487.50;5092573;28;20206;-53
2023/04/07 04:34:54;;;;;;;0.10;0.10;;;;;;;5.94;100.00;96482.66;5092784;28;20188;-52
2023/04/07 04:37:19;;;;;;;0.10;0.10;;;;;;;6.02;100.00;96491.03;5092644;28;20180;-52
2023/04/07 04:39:45;;;;;;;0.10;0.10;;;;;;;6.03;100.00;96495.25;5092646;28;20519;-49
2023/04/07 04:42:11;;;;;;;0.10;0.10;;;;;;;6.12;100.00;96483.63;5092331;28;20610;-50
2023/04/07 04:44:36;;;;;;;0.10;0.10;;;;;;;6.13;100.00;96490.41;5092260;28;20645;-51
2023/04/07 04:47:01;;;;;;;0.03;0.03;;;;;;;5.98;100.00;96489.84;5091978;28;20267;-49
2023/04/07 04:49:27;;;;;;;0.10;0.10;;;;;;;6.09;100.00;96493.63;5090081;28;20279;-50
2023/04/07 04:51:52;;;;;;;0.03;0.03;;;;;;;6.01;100.00;96491.25;5092471;28;20210;-50
2023/04/07 04:54:18;;;;;;;0.10;0.10;;;;;;;6.02;100.00;96491.03;5092414;28;20204;-52
2023/04/07 04:56:44;;;;;;;0.10;0.10;;;;;;;6.16;100.00;96487.41;5092118;28;20169;-50
2023/04/07 04:59:09;;;;;;;0.10;0.10;;;;;;;6.20;100.00;96490.38;5092525;28;20172;-51
2023/04/07 05:01:35;;;;;;;0.10;0.10;;;;;;;6.15;100.00;96498.81;5089504;28;20225;-50
2023/04/07 05:04:00;;;;;;;0.10;0.10;;;;;;;6.02;100.00;96498.06;5091657;28;20270;-52
2023/04/07 05:06:26;;;;;;;0.10;0.10;;;;;;;6.03;100.00;96495.25;5091920;28;20169;-50
2023/04/07 05:08:52;;;;;;;0.10;0.10;;;;;;;6.01;100.00;96496.47;5092395;28;20578;-50
2023/04/07 05:11:18;;;;;;;0.10;0.10;;;;;;;6.05;100.00;96500.25;5092352;28;20208;-52
2023/04/07 05:13:43;;;;;;;0.10;0.10;;;;;;;6.19;100.00;96493.97;5092509;28;20177;-49
2023/04/07 05:16:09;;;;;;;0.10;0.10;;;;;;;5.98;100.00;96496.84;5092210;28;20175;-51
2023/04/07 05:18:34;;;;;;;0.10;0.10;;;;;;;6.06;100.00;96496.66;5092303;28;20173;-50
2023/04/07 05:21:00;;;;;;;0.10;0.10;;;;;;;6.03;100.00;96490.03;5074232;28;20231;-53
2023/04/07 05:23:26;;;;;;;0.10;0.10;;;;;;;5.94;100.00;96493.88;5092256;28;20222;-49
2023/04/07 05:25:51;;;;;;;0.10;0.10;;;;;;;5.91;100.00;96498.69;5092033;28;20169;-49
2023/04/07 05:28:17;;;;;;;0.10;0.10;;;;;;;5.99;100.00;96499.25;5091534;28;21001;-49
2023/04/07 05:30:42;;;;;;;0.10;0.10;;;;;;;6.03;100.00;96502.25;5091560;28;20200;-49
2023/04/07 05:33:08;;;;;;;0.10;0.10;;;;;;;5.97;100.00;96501.25;5083439;28;20173;-49
2023/04/07 05:35:33;;;;;;;0.10;0.10;;;;;;;5.97;100.00;96498.66;5091292;28;20181;-50
2023/04/07 05:37:59;;;;;;;0.10;0.10;;;;;;;5.93;100.00;96513.06;5091654;28;20193;-49
2023/04/07 05:40:24;;;;;;;0.10;0.10;;;;;;;6.11;100.00;96502.81;5092205;28;20633;-50
2023/04/07 05:42:50;;;;;;;0.10;0.10;;;;;;;6.19;100.00;96499.97;5092008;28;20177;-53
2023/04/07 05:45:15;;;;;;;0.10;0.10;;;;;;;6.39;100.00;96499.91;5091927;28;20188;-49
2023/04/07 05:47:41;;;;;;;0.10;0.10;;;;;;;6.48;100.00;96496.06;5089689;28;20181;-50
2023/04/07 05:50:07;;;;;;;0.10;0.10;;;;;;;6.58;100.00;96499.00;5091991;28;20207;-52
2023/04/07 05:52:32;;;;;;;0.10;0.10;;;;;;;6.46;100.00;96487.69;5091872;28;20224;-50
2023/04/07 05:54:58;;;;;;;0.10;0.10;;;;;;;6.66;100.00;96495.38;5092013;28;20173;-52
2023/04/07 05:57:26;;;;;;;0.10;0.10;;;;;;;6.77;100.00;96501.72;5094792;28;20164;-51
2023/04/07 05:59:51;;;;;;;0.10;0.10;;;;;;;6.78;100.00;96498.91;5095794;28;20310;-51
2023/04/07 06:02:17;;;;;;;0.10;0.10;;;;;;;6.80;100.00;96503.94;5094727;28;20719;-50
2023/04/07 06:04:42;;;;;;;0.00;0.00;;;;;;;6.75;100.00;96503.72;5095554;28;20176;-55
2023/04/07 06:07:07;;;;;;;0.10;0.10;;;;;;;6.68;100.00;96501.19;5095414;28;20710;-52
2023/04/07 06:09:33;;;;;;;0.10;0.10;;;;;;;6.61;100.00;96503.81;5095193;28;20924;-49
2023/04/07 06:12:00;;;;;;;0.10;0.10;;;;;;;6.63;100.00;96509.59;5095152;28;20258;-50
2023/04/07 06:14:25;;;;;;;0.10;0.10;;;;;;;6.59;100.00;96505.03;5095731;28;20255;-55
2023/04/07 06:16:51;;;;;;;0.10;0.10;;;;;;;6.88;100.00;96508.88;5095049;28;20333;-54
2023/04/07 06:19:16;;;;;;;0.10;0.10;;;;;;;6.86;100.00;96509.06;5094903;28;20646;-51
2023/04/07 06:21:42;;;;;;;0.10;0.10;;;;;;;7.01;100.00;96508.81;5095087;28;20234;-50
2023/04/07 06:24:07;;;;;;;0.10;0.10;;;;;;;7.06;100.00;96504.56;5095574;28;20243;-50
2023/04/07 06:26:33;;;;;;;0.10;0.10;;;;;;;7.03;100.00;96507.56;5094528;28;20165;-63
2023/04/07 06:28:59;;;;;;;0.00;0.00;;;;;;;7.01;100.00;96509.59;5094140;28;20214;-56
2023/04/07 06:31:25;;;;;;;0.10;0.10;;;;;;;6.93;100.00;96509.84;5094705;28;20205;-54
2023/04/07 06:33:51;;;;;;;0.10;0.10;;;;;;;7.27;100.00;96513.00;5079731;28;20169;-54
2023/04/07 06:36:16;;;;;;;0.03;0.03;;;;;;;7.36;100.00;96502.09;5094763;28;20196;-58
2023/04/07 06:38:42;;;;;;;0.10;0.10;;;;;;;7.44;100.00;96507.06;5094787;28;20176;-50
2023/04/07 06:41:15;;;;;;;0.00;0.00;;;;;;;7.52;100.00;96511.22;5093077;28;20200;-54
2023/04/07 06:43:41;;;;;;;0.10;0.10;;;;;;;7.41;100.00;96511.91;5094607;28;20173;-52
2023/04/07 06:46:06;;;;;;;0.10;0.10;;;;;;;7.36;100.00;96507.31;5080033;28;20222;-52
2023/04/07 06:48:32;;;;;;;0.10;0.10;;;;;;;7.26;100.00;96507.00;5092314;28;20282;-51
2023/04/07 06:50:57;;;;;;;0.10;0.10;;;;;;;7.47;100.00;96511.03;5094326;28;20266;-54
2023/04/07 06:53:22;;;;;;;0.10;0.10;;;;;;;7.56;100.00;96511.59;5094486;28;20184;-55
2023/04/07 06:55:48;;;;;;;0.00;0.00;;;;;;;7.62;100.00;96497.69;5094446;28;20268;-53
2023/04/07 06:58:13;;;;;;;0.10;0.10;;;;;;;7.52;100.00;96503.41;5094222;28;20169;-51
2023/04/07 07:00:38;;;;;;;0.00;0.00;;;;;;;7.79;100.00;96498.72;5094266;28;20219;-52
2023/04/07 07:03:04;;;;;;;0.10;0.10;;;;;;;7.68;100.00;96496.84;5093449;28;20181;-50
2023/04/07 07:05:30;;;;;;;0.10;0.10;;;;;;;7.87;100.00;96507.06;5093753;28;20203;-50
2023/04/07 07:07:55;;;;;;;0.10;0.10;;;;;;;8.01;100.00;96506.94;5093971;28;20267;-52
2023/04/07 07:10:21;;;;;;;0.10;0.10;;;;;;;8.34;100.00;96502.19;5093970;28;20279;-50
2023/04/07 07:12:50;;;;;;;0.00;0.00;;;;;;;8.26;100.00;96499.81;5095032;28;20181;-49
2023/04/07 07:15:16;;;;;;;0.10;0.10;;;;;;;8.38;100.00;96494.69;5094033;28;20199;-51
2023/04/07 07:17:42;;;;;;;0.10;0.10;;;;;;;8.29;100.00;96500.19;5094344;28;20177;-51
2023/04/07 07:20:08;;;;;;;0.10;0.10;;;;;;;8.25;100.00;96499.03;5093992;28;20168;-50
2023/04/07 07:22:33;;;;;;;0.00;0.00;;;;;;;8.29;100.00;96502.81;5093997;28;20620;-51
2023/04/07 07:24:59;;;;;;;0.10;0.10;;;;;;;8.50;100.00;96506.81;5093446;28;20180;-53
2023/04/07 07:27:24;;;;;;;0.10;0.10;;;;;;;8.53;100.00;96498.50;5093860;28;20291;-53
2023/04/07 07:29:50;;;;;;;0.10;0.10;;;;;;;8.85;99.67;96504.34;5093456;28;20652;-53
2023/04/07 07:32:15;;;;;;;0.10;0.10;;;;;;;9.11;96.21;96505.75;5093197;28;20230;-55
2023/04/07 07:34:41;;;;;;;0.10;0.10;;;;;;;8.57;98.48;96504.91;5094024;28;20243;-55
2023/04/07 07:37:06;;;;;;;0.00;0.00;;;;;;;8.86;95.92;96507.75;5093695;28;20176;-51
2023/04/07 07:39:32;;;;;;;0.07;0.07;;;;;;;8.96;96.45;96506.19;5093415;28;20176;-53
2023/04/07 07:41:57;;;;;;;0.00;0.00;;;;;;;8.95;96.22;96501.97;5093683;28;20655;-50
2023/04/07 07:44:23;;;;;;;0.10;0.10;;;;;;;9.29;95.16;96507.50;5093274;28;20230;-50
2023/04/07 07:46:49;;;;;;;0.10;0.10;;;;;;;9.31;94.04;96519.31;5093331;28;20227;-51
2023/04/07 07:49:15;;;;;;;0.10;0.10;;;;;;;9.42;92.65;96521.16;5090279;28;20236;-51
2023/04/07 07:51:41;;;;;;;0.10;0.10;;;;;;;9.36;93.73;96527.28;5093197;28;20265;-50
2023/04/07 07:54:06;;;;;;;0.10;0.10;;;;;;;8.96;96.26;96513.22;5093492;28;20176;-52
2023/04/07 07:56:31;;;;;;;0.03;0.03;;;;;;;9.04;95.43;96512.91;5092812;28;20168;-50
2023/04/07 07:58:57;;;;;;;0.10;0.10;;;;;;;9.06;94.56;96522.13;5093243;28;20183;-49
2023/04/07 08:01:23;;;;;;;0.10;0.10;;;;;;;9.21;93.62;96520.91;5087419;28;20200;-52
2023/04/07 08:03:48;;;;;;;0.10;0.10;;;;;;;9.00;93.59;96517.00;5091415;28;20177;-52
2023/04/07 08:06:15;;;;;;;0.10;0.10;;;;;;;8.99;92.65;96518.81;5074302;28;20191;-56
2023/04/07 08:08:40;;;;;;;0.10;0.10;;;;;;;8.63;94.21;96513.69;5092820;28;20192;-52
2023/04/07 08:11:06;;;;;;;0.10;0.10;;;;;;;9.09;93.17;96515.63;5092713;28;20230;-53
2023/04/07 08:13:31;;;;;;;0.10;0.10;;;;;;;9.46;91.60;96522.31;5092909;28;20202;-54
2023/04/07 08:15:57;;;;;;;0.10;0.10;;;;;;;9.80;89.07;96525.19;5092832;28;20633;-51
2023/04/07 08:18:24;;;;;;;0.00;0.00;;;;;;;9.68;89.07;96527.81;5092739;28;20184;-52
2023/04/07 08:20:50;;;;;;;0.10;0.10;;;;;;;9.81;88.05;96529.38;5093065;28;20208;-53
2023/04/07 08:23:16;;;;;;;0.00;0.00;;;;;;;9.71;87.12;96532.56;5093314;28;20172;-53
2023/04/07 08:25:41;;;;;;;0.10;0.10;;;;;;;9.75;87.35;96525.84;5092491;28;20180;-57
2023/04/07 08:28:09;;;;;;;0.10;0.10;;;;;;;9.97;88.05;96532.09;5086579;28;20265;-58
2023/04/07 08:30:34;;;;;;;0.10;0.10;;;;;;;10.05;90.18;96533.59;5093048;28;20229;-51
2023/04/07 08:33:00;;;;;;;0.10;0.10;;;;;;;10.64;87.18;96539.56;5087639;28;20192;-58
2023/04/07 08:35:25;;;;;;;0.10;0.10;;;;;;;11.37;82.79;96529.06;5091938;28;20582;-59
2023/04/07 08:37:51;;;;;;;0.00;0.00;;;;;;;11.82;79.92;96529.03;5091944;28;20189;-54
2023/04/07 08:40:16;;;;;;;0.10;0.10;;;;;;;12.18;78.87;96532.97;5092379;28;20180;-51
2023/04/07 08:42:47;;;;;;;0.00;0.00;;;;;;;12.42;75.28;96523.03;5092746;28;20237;-54
2023/04/07 08:45:12;;;;;;;0.10;0.10;;;;;;;11.55;73.44;96528.84;5092657;28;20645;-51
2023/04/07 08:47:40;;;;;;;0.10;0.10;;;;;;;10.66;78.31;96522.56;5071998;28;20181;-50
2023/04/07 08:50:08;;;;;;;0.10;0.10;;;;;;;11.32;78.40;96522.94;5092750;28;20196;-53
2023/04/07 08:52:40;;;;;;;0.00;0.00;;;;;;;11.87;75.16;96520.44;5092768;28;20173;-51
2023/04/07 08:55:07;;;;;;;0.10;0.10;;;;;;;11.08;75.90;96522.28;5092728;28;20168;-52
2023/04/07 08:57:33;;;;;;;0.10;0.10;;;;;;;10.96;78.33;96526.78;5092373;28;20218;-54
2023/04/07 09:00:04;;;;;;;0.07;0.07;;;;;;;10.77;80.48;96532.22;5092382;28;20434;-51
2023/04/07 09:02:34;;;;;;;0.10;0.10;;;;;;;11.26;80.22;96533.34;5090774;28;20200;-51
2023/04/07 09:05:02;;;;;;;0.10;0.10;;;;;;;11.17;77.82;96536.59;5092226;28;20227;-53
2023/04/07 09:07:27;;;;;;;0.00;0.00;;;;;;;10.96;78.37;96530.22;5092150;28;20177;-51
2023/04/07 09:09:54;;;;;;;0.00;0.00;;;;;;;11.61;76.40;96538.41;5091970;28;20265;-54
2023/04/07 09:12:20;;;;;;;0.00;0.00;;;;;;;11.93;75.74;96538.63;5092274;28;20192;-52
2023/04/07 09:14:45;;;;;;;0.10;0.10;;;;;;;11.83;74.70;96530.63;5091854;28;20583;-51
2023/04/07 09:17:10;;;;;;;0.10;0.10;;;;;;;11.94;73.41;96536.81;5092082;28;20168;-53
2023/04/07 09:19:36;;;;;;;0.07;0.07;;;;;;;12.08;73.18;96538.88;5091375;28;20189;-54
2023/04/07 09:22:01;;;;;;;0.00;0.00;;;;;;;11.32;75.09;96539.47;5090759;28;20200;-56
2023/04/07 09:24:30;;;;;;;0.10;0.10;;;;;;;11.23;75.97;96527.78;5091811;28;20187;-53
2023/04/07 09:27:10;;;;;;;0.00;0.00;;;;;;;11.08;77.23;96532.78;5092089;28;20177;-52
2023/04/07 09:29:36;;;;;;;0.10;0.10;;;;;;;11.41;76.70;96532.84;5091465;28;20238;-51
2023/04/07 09:32:02;;;;;;;0.00;0.00;;;;;;;11.88;74.47;96538.56;5094765;28;20204;-51
2023/04/07 09:34:38;;;;;;;0.10;0.10;;;;;;;12.28;72.89;96532.28;5096010;28;20169;-53
2023/04/07 09:37:05;;;;;;;0.10;0.10;;;;;;;12.39;72.54;96534.81;5095649;28;20570;-52
2023/04/07 09:39:31;;;;;;;0.10;0.10;;;;;;;12.65;71.35;96527.25;5095912;28;20271;-55
2023/04/07 09:41:57;;;;;;;0.10;0.10;;;;;;;12.21;70.15;96534.28;5095992;28;20295;-53
2023/04/07 09:44:24;;;;;;;0.10;0.10;;;;;;;12.09;71.62;96531.78;5095712;28;20718;-54
2023/04/07 09:46:57;;;;;;;0.10;0.10;;;;;;;12.39;71.52;96526.13;5094550;28;20187;-55
2023/04/07 09:49:24;;;;;;;0.07;0.07;;;;;;;12.36;71.05;96524.00;5093561;28;20648;-56
2023/04/07 09:52:03;;;;;;;0.10;0.10;;;;;;;11.46;75.26;96527.66;5095352;28;20743;-54
2023/04/07 09:54:34;;;;;;;0.00;0.00;;;;;;;11.63;76.04;96525.84;5095542;28;20173;-54
2023/04/07 09:57:01;;;;;;;0.00;0.00;;;;;;;11.76;75.69;96526.59;5095546;28;20259;-54
2023/04/07 09:59:31;;;;;;;0.10;0.10;;;;;;;10.96;78.70;96519.72;5095908;28;20640;-54
2023/04/07 10:01:56;;;;;;;0.10;0.10;;;;;;;11.09;77.96;96527.28;5095054;28;20663;-61
2023/04/07 10:04:28;;;;;;;0.00;0.00;;;;;;;11.33;77.58;96525.34;5095859;28;20173;-55
2023/04/07 10:06:54;;;;;;;0.10;0.10;;;;;;;11.05;78.26;96522.75;5085011;28;20263;-53
2023/04/07 10:09:23;;;;;;;0.10;0.10;;;;;;;10.95;79.43;96531.25;5095755;28;20200;-54
2023/04/07 10:11:50;;;;;;;0.00;0.00;;;;;;;11.12;78.26;96526.81;5095347;28;20201;-54
2023/04/07 10:14:17;;;;;;;0.10;0.10;;;;;;;11.30;77.90;96525.81;5094944;28;20165;-53
2023/04/07 10:16:43;;;;;;;0.00;0.00;;;;;;;11.23;76.21;96535.66;5095505;28;20253;-53
2023/04/07 10:19:10;;;;;;;0.00;0.00;;;;;;;11.00;76.58;96530.53;5095875;28;20169;-50
2023/04/07 10:21:43;;;;;;;0.10;0.10;;;;;;;11.36;74.90;96521.47;5096217;28;20196;-53
2023/04/07 10:24:27;;;;;;;0.10;0.10;;;;;;;11.11;76.50;96530.47;5086996;28;20173;-49
2023/04/07 10:26:58;;;;;;;0.10;0.10;;;;;;;11.00;77.55;96528.69;5084742;28;20220;-54
2023/04/07 10:29:24;;;;;;;0.10;0.10;;;;;;;11.06;78.41;96533.00;5093488;28;20287;-57
2023/04/07 10:31:50;;;;;;;0.00;0.00;;;;;;;10.94;79.75;96531.47;5092734;28;20204;-54
2023/04/07 10:34:15;;;;;;;0.00;0.00;;;;;;;10.95;78.80;96530.44;5095653;28;20169;-56
2023/04/07 10:37:13;;;;;;;0.10;0.10;;;;;;;10.69;79.16;96542.28;5095491;28;20184;-51
2023/04/07 10:39:39;;;;;;;0.00;0.00;;;;;;;10.83;78.10;96535.72;5095735;28;20177;-50
2023/04/07 10:42:05;;;;;;;0.00;0.00;;;;;;;11.09;77.60;96535.16;5095240;28;20219;-55
2023/04/07 10:44:39;;;;;;;0.10;0.10;;;;;;;11.64;75.49;96539.75;5095550;28;20196;-52
2023/04/07 10:47:05;;;;;;;0.10;0.10;;;;;;;11.70;72.84;96533.56;5089340;28;20662;-52
2023/04/07 10:49:32;;;;;;;0.10;0.10;;;;;;;12.02;72.54;96529.34;5093732;28;20235;-52
2023/04/07 10:52:10;;;;;;;0.00;0.00;;;;;;;11.94;72.10;96536.81;5095794;28;20218;-57
2023/04/07 10:54:36;;;;;;;0.10;0.10;;;;;;;11.72;73.35;96536.72;5096742;28;20249;-57
2023/04/07 10:57:01;;;;;;;0.00;0.00;;;;;;;11.29;73.46;96539.97;5094032;28;20818;-51
2023/04/07 10:59:28;;;;;;;0.10;0.10;;;;;;;11.36;73.97;96543.25;5098251;28;20168;-51
2023/04/07 11:02:22;;;;;;;0.00;0.00;;;;;;;11.07;74.88;96532.00;5097293;28;20238;-54
2023/04/07 11:04:47;;;;;;;0.00;0.00;;;;;;;11.52;73.29;96534.59;5074235;28;20242;-55
2023/04/07 11:07:14;;;;;;;0.10;0.10;;;;;;;11.75;71.10;96538.13;5081434;28;20635;-50
2023/04/07 11:09:41;;;;;;;0.10;0.10;;;;;;;12.08;71.71;96530.19;5095003;28;20215;-55
2023/04/07 11:12:07;;;;;;;0.00;0.00;;;;;;;12.11;70.56;96542.03;5095167;28;20201;-55
2023/04/07 11:14:36;;;;;;;0.10;0.10;;;;;;;11.97;71.31;96533.72;5094495;28;20195;-53
2023/04/07 11:17:02;;;;;;;0.00;0.00;;;;;;;11.84;72.10;96528.78;5093849;28;20169;-54
2023/04/07 11:19:30;;;;;;;0.10;0.10;;;;;;;12.13;70.70;96529.47;5094209;28;20177;-54
2023/04/07 11:22:17;;;;;;;0.00;0.00;;;;;;;12.43;69.83;96524.59;5094735;28;20220;-54
2023/04/07 11:24:45;;;;;;;0.10;0.10;;;;;;;12.02;69.24;96534.59;5094468;28;20164;-53
2023/04/07 11:27:14;;;;;;;0.00;0.00;;;;;;;12.37;67.79;96533.47;5093772;28;20204;-53
2023/04/07 11:29:40;;;;;;;0.10;0.10;;;;;;;12.80;66.18;96528.19;5093549;28;20204;-50
2023/04/07 11:32:06;;;;;;;0.00;0.00;;;;;;;12.86;64.79;96529.84;5094652;28;20203;-54
2023/04/07 11:34:33;;;;;;;0.10;0.10;;;;;;;11.96;68.63;96534.75;5093855;28;20195;-50